Time;durP1;ratioP1;P1;durP2;ratioP2;P2;SDS_P1;SDS_P2;PMS_P1;PMS_P2;Temp;Humidity;BMP_temperature;BMP_pressure;BME280_temperature;BME280_humidity;BME280_pressure;Samples;Min_cycle;Max_cycle;Signal;HPM_P1;HPM_P2
2023/07/01 00:01:47;;;;;;;19.20;11.80;;;20.30;99.90;;;;;;5055529;28;20060;-86
2023/07/01 00:04:13;;;;;;;15.68;10.93;;;20.30;99.90;;;;;;5055605;28;20036;-81
2023/07/01 00:06:41;;;;;;;23.48;11.63;;;20.30;99.90;;;;;;5055958;28;20040;-75
2023/07/01 00:09:11;;;;;;;19.58;11.48;;;20.30;99.90;;;;;;5072707;28;20474;-79
2023/07/01 00:11:38;;;;;;;16.77;11.07;;;20.30;99.90;;;;;;5069680;28;20036;-85
2023/07/01 00:14:04;;;;;;;15.93;10.57;;;20.20;99.90;;;;;;5054320;28;20033;-84
2023/07/01 00:16:30;;;;;;;15.80;10.45;;;20.20;99.90;;;;;;5055273;28;20463;-86
2023/07/01 00:18:56;;;;;;;18.40;11.43;;;20.20;99.90;;;;;;5055410;28;20108;-82
2023/07/01 00:21:22;;;;;;;14.43;10.70;;;20.20;99.90;;;;;;5037166;28;20037;-85
2023/07/01 00:23:47;;;;;;;24.10;11.73;;;20.20;99.90;;;;;;5055177;28;20059;-86
2023/07/01 00:26:13;;;;;;;19.05;11.13;;;20.30;99.90;;;;;;5056317;28;20033;-84
2023/07/01 00:28:39;;;;;;;17.52;11.27;;;20.30;99.90;;;;;;5055346;28;20032;-81
2023/07/01 00:31:05;;;;;;;20.73;13.60;;;20.00;99.90;;;;;;5053054;28;20040;-84
2023/07/01 00:33:31;;;;;;;25.48;13.20;;;19.80;99.90;;;;;;5053614;28;20087;-85
2023/07/01 00:35:56;;;;;;;25.45;14.57;;;19.80;99.90;;;;;;5055232;28;20509;-74
2023/07/01 00:38:22;;;;;;;27.35;16.10;;;19.60;99.90;;;;;;5054582;28;20075;-87
2023/07/01 00:40:48;;;;;;;21.90;14.52;;;19.60;99.90;;;;;;5054737;28;20048;-86
2023/07/01 00:43:14;;;;;;;22.65;16.00;;;19.60;99.90;;;;;;5053654;28;20064;-78
2023/07/01 00:45:40;;;;;;;23.60;15.02;;;19.60;99.90;;;;;;5055410;28;20075;-84
2023/07/01 00:48:06;;;;;;;29.38;16.33;;;19.60;99.90;;;;;;5054727;28;20052;-87
2023/07/01 00:50:32;;;;;;;27.48;15.82;;;19.70;99.90;;;;;;5053253;28;20129;-86
2023/07/01 00:52:59;;;;;;;22.85;15.90;;;19.60;99.90;;;;;;5054583;28;20120;-87
2023/07/01 00:55:25;;;;;;;26.70;16.92;;;19.60;99.90;;;;;;5054467;28;20013;-86
2023/07/01 00:57:50;;;;;;;22.65;14.32;;;19.60;99.90;;;;;;5054428;28;20047;-86
2023/07/01 01:00:18;;;;;;;25.45;14.88;;;19.70;99.90;;;;;;5053033;28;20028;-81
2023/07/01 01:02:53;;;;;;;21.95;14.45;;;19.80;99.90;;;;;;5049290;28;20033;-84
2023/07/01 01:05:31;;;;;;;22.85;14.93;;;19.80;99.90;;;;;;5058309;28;20025;-84
2023/07/01 01:08:03;;;;;;;21.38;14.00;;;19.80;99.90;;;;;;5054587;28;20060;-86
2023/07/01 01:10:32;;;;;;;21.02;14.40;;;19.80;99.90;;;;;;5053017;28;20538;-74
2023/07/01 01:13:02;;;;;;;22.98;15.52;;;19.90;99.90;;;;;;5054161;28;20216;-85
2023/07/01 01:15:30;;;;;;;21.50;14.65;;;19.80;99.90;;;;;;5052745;28;20025;-81
2023/07/01 01:17:59;;;;;;;19.65;14.45;;;19.60;99.90;;;;;;5051983;28;20112;-73
2023/07/01 01:20:30;;;;;;;20.27;14.00;;;19.50;99.90;;;;;;5052827;28;20024;-85
2023/07/01 01:23:01;;;;;;;23.27;13.88;;;19.50;99.90;;;;;;5054167;28;20021;-84
2023/07/01 01:25:32;;;;;;;23.98;13.93;;;19.50;99.90;;;;;;5054801;28;20025;-85
2023/07/01 01:27:58;;;;;;;20.08;13.95;;;19.50;99.90;;;;;;5052468;28;20505;-86
2023/07/01 01:30:24;;;;;;;23.25;14.50;;;19.50;99.90;;;;;;5052268;28;20029;-85
2023/07/01 01:32:51;;;;;;;19.88;12.98;;;19.50;99.90;;;;;;5053731;28;20048;-74
2023/07/01 01:35:17;;;;;;;24.90;14.27;;;19.50;99.90;;;;;;5052399;28;20043;-73
2023/07/01 01:37:48;;;;;;;22.20;13.60;;;19.50;99.90;;;;;;5053650;28;20496;-81
2023/07/01 01:40:29;;;;;;;22.08;12.70;;;19.50;99.90;;;;;;5052484;28;20039;-85
2023/07/01 01:43:05;;;;;;;20.10;12.57;;;19.60;99.90;;;;;;5052177;28;20112;-82
2023/07/01 01:45:33;;;;;;;20.15;13.02;;;19.50;99.90;;;;;;5052452;28;20115;-74
2023/07/01 01:48:00;;;;;;;19.77;14.00;;;19.60;99.90;;;;;;5053535;28;20017;-75
2023/07/01 01:50:26;;;;;;;20.88;12.60;;;19.60;99.90;;;;;;5052946;28;20415;-79
2023/07/01 01:52:53;;;;;;;19.63;12.60;;;19.60;99.90;;;;;;5052120;28;20036;-73
2023/07/01 01:55:21;;;;;;;20.38;13.35;;;19.50;99.90;;;;;;5052136;28;20033;-80
2023/07/01 01:57:48;;;;;;;20.08;12.95;;;19.60;99.90;;;;;;5051888;28;20033;-84
2023/07/01 02:00:14;;;;;;;19.67;13.18;;;19.50;99.90;;;;;;5053247;28;20021;-75
2023/07/01 02:02:43;;;;;;;19.20;13.52;;;19.50;99.90;;;;;;5054369;28;20033;-86
2023/07/01 02:05:09;;;;;;;18.92;13.48;;;19.40;99.90;;;;;;5051923;28;20029;-86
2023/07/01 02:07:35;;;;;;;19.33;12.85;;;19.40;99.90;;;;;;5053157;28;20021;-86
2023/07/01 02:10:00;;;;;;;20.10;13.20;;;19.40;99.90;;;;;;5053333;28;20025;-73
2023/07/01 02:12:26;;;;;;;18.90;12.20;;;19.40;99.90;;;;;;5034789;28;20590;-74
2023/07/01 02:14:52;;;;;;;21.95;12.75;;;19.30;99.90;;;;;;5035192;28;20025;-87
2023/07/01 02:17:18;;;;;;;20.65;12.95;;;19.40;99.90;;;;;;5035088;28;20060;-78
2023/07/01 02:19:44;;;;;;;19.92;13.00;;;19.40;99.90;;;;;;5051796;28;20024;-83
2023/07/01 02:22:10;;;;;;;18.98;12.68;;;19.40;99.90;;;;;;5052846;28;20025;-79
2023/07/01 02:24:35;;;;;;;20.70;13.52;;;19.40;99.90;;;;;;5052777;28;20025;-86
2023/07/01 02:27:01;;;;;;;23.48;13.18;;;19.40;99.90;;;;;;5051511;28;20498;-86
2023/07/01 02:29:27;;;;;;;18.10;12.45;;;19.30;99.90;;;;;;5052721;28;20070;-85
2023/07/01 02:31:54;;;;;;;22.35;13.25;;;19.40;99.90;;;;;;5052334;28;20049;-87
2023/07/01 02:34:27;;;;;;;25.40;16.13;;;19.30;99.90;;;;;;5051366;28;20029;-81
2023/07/01 02:36:54;;;;;;;25.35;14.57;;;19.20;99.90;;;;;;5051496;28;20021;-86
2023/07/01 02:39:20;;;;;;;22.45;14.70;;;19.20;99.90;;;;;;5059439;28;20025;-73
2023/07/01 02:41:46;;;;;;;20.85;14.70;;;19.20;99.90;;;;;;5051140;28;20450;-86
2023/07/01 02:44:12;;;;;;;20.17;14.43;;;19.20;99.90;;;;;;5056172;28;20020;-75
2023/07/01 02:46:38;;;;;;;24.48;14.05;;;19.30;99.90;;;;;;5058079;28;20021;-85
2023/07/01 02:49:04;;;;;;;21.58;14.45;;;19.20;99.90;;;;;;5050997;28;20372;-83
2023/07/01 02:51:30;;;;;;;21.10;14.32;;;19.20;99.90;;;;;;5052383;28;20024;-73
2023/07/01 02:53:56;;;;;;;29.95;13.70;;;19.20;99.90;;;;;;5034533;28;20031;-84
2023/07/01 02:56:22;;;;;;;25.98;14.35;;;19.30;99.90;;;;;;5050923;28;20029;-73
2023/07/01 02:58:48;;;;;;;18.63;13.45;;;19.30;99.90;;;;;;5034340;28;20505;-84
2023/07/01 03:01:14;;;;;;;21.02;14.02;;;19.30;99.90;;;;;;5052304;28;20031;-77
2023/07/01 03:03:40;;;;;;;21.98;13.45;;;19.30;99.90;;;;;;5050247;28;20516;-76
2023/07/01 03:06:06;;;;;;;23.77;15.20;;;19.30;99.90;;;;;;5052172;28;20023;-74
2023/07/01 03:08:32;;;;;;;22.88;13.25;;;19.40;99.90;;;;;;5052080;28;20067;-83
2023/07/01 03:10:58;;;;;;;20.65;12.82;;;19.40;99.90;;;;;;5051059;28;20029;-85
2023/07/01 03:13:24;;;;;;;19.42;13.30;;;19.50;99.90;;;;;;5051842;28;20479;-73
2023/07/01 03:15:50;;;;;;;19.85;13.82;;;19.50;99.90;;;;;;5050799;28;20440;-85
2023/07/01 03:18:16;;;;;;;23.10;13.65;;;19.50;99.90;;;;;;5052154;28;20428;-78
2023/07/01 03:20:42;;;;;;;24.10;14.35;;;19.60;99.90;;;;;;5052307;28;20146;-87
2023/07/01 03:23:08;;;;;;;19.17;13.57;;;19.70;99.90;;;;;;5052046;28;20059;-87
2023/07/01 03:25:35;;;;;;;20.77;13.27;;;19.70;99.90;;;;;;5050638;28;20021;-79
2023/07/01 03:28:02;;;;;;;21.48;13.70;;;19.80;99.90;;;;;;5050764;28;20163;-86
2023/07/01 03:30:30;;;;;;;21.00;13.50;;;19.80;99.90;;;;;;5050603;28;20033;-86
2023/07/01 03:32:57;;;;;;;24.40;14.25;;;19.90;99.90;;;;;;5050652;28;20048;-85
2023/07/01 03:35:23;;;;;;;20.13;13.32;;;20.00;99.90;;;;;;5051902;28;20024;-73
2023/07/01 03:37:49;;;;;;;23.25;14.23;;;20.10;99.90;;;;;;5052229;28;20111;-75
2023/07/01 03:40:15;;;;;;;24.77;13.20;;;20.30;99.90;;;;;;5051746;28;20079;-85
2023/07/01 03:42:42;;;;;;;20.45;13.63;;;20.40;99.90;;;;;;5051703;28;20025;-73
2023/07/01 03:45:12;;;;;;;23.17;13.40;;;20.60;99.90;;;;;;5055047;28;20363;-75
2023/07/01 03:47:42;;;;;;;18.52;12.88;;;21.40;99.90;;;;;;5050714;28;20387;-84
2023/07/01 03:50:08;;;;;;;20.92;12.57;;;22.00;99.90;;;;;;5050320;28;20029;-86
2023/07/01 03:52:36;;;;;;;18.65;11.18;;;22.80;99.90;;;;;;5033446;28;20045;-84
2023/07/01 03:55:03;;;;;;;18.75;11.88;;;23.20;99.90;;;;;;5051644;28;20017;-84
2023/07/01 03:57:28;;;;;;;21.73;11.88;;;23.90;99.90;;;;;;5050496;28;20442;-85
2023/07/01 03:59:54;;;;;;;23.15;12.65;;;23.80;99.90;;;;;;5062553;28;20021;-84
2023/07/01 04:02:20;;;;;;;16.42;11.02;;;23.80;99.90;;;;;;5080185;28;20074;-73
2023/07/01 04:04:46;;;;;;;18.42;12.35;;;23.50;99.90;;;;;;5072163;28;20021;-87
2023/07/01 04:07:12;;;;;;;17.45;11.65;;;23.40;99.90;;;;;;5070575;28;20465;-85
2023/07/01 04:09:38;;;;;;;15.13;10.45;;;23.00;99.90;;;;;;5072337;28;20031;-85
2023/07/01 04:12:05;;;;;;;20.42;10.48;;;22.90;99.90;;;;;;5072064;28;20122;-85
2023/07/01 04:14:31;;;;;;;15.73;10.10;;;22.90;99.90;;;;;;5074096;28;20108;-85
2023/07/01 04:16:56;;;;;;;17.20;10.77;;;22.70;99.90;;;;;;5076091;28;20082;-73
2023/07/01 04:19:23;;;;;;;19.92;11.40;;;22.40;99.90;;;;;;5075756;28;20025;-84
2023/07/01 04:21:48;;;;;;;15.40;10.93;;;22.30;99.90;;;;;;5057636;28;20032;-84
2023/07/01 04:24:14;;;;;;;16.77;10.13;;;22.30;99.90;;;;;;5075823;28;20202;-74
2023/07/01 04:26:44;;;;;;;22.98;11.75;;;22.40;99.90;;;;;;5075955;28;20105;-74
2023/07/01 04:29:10;;;;;;;21.40;11.63;;;22.40;99.90;;;;;;5075595;28;20039;-74
2023/07/01 04:31:36;;;;;;;18.60;11.35;;;22.20;99.90;;;;;;5075641;28;20040;-73
2023/07/01 04:34:01;;;;;;;17.77;11.80;;;22.50;99.90;;;;;;5075727;28;20145;-74
2023/07/01 04:36:27;;;;;;;15.77;11.07;;;23.80;99.90;;;;;;5075917;28;20016;-80
2023/07/01 04:38:53;;;;;;;19.25;10.60;;;23.60;99.90;;;;;;5075757;28;20115;-85
2023/07/01 04:41:19;;;;;;;15.90;11.50;;;23.60;99.90;;;;;;5073833;28;20040;-84
2023/07/01 04:43:44;;;;;;;18.60;11.32;;;24.50;99.90;;;;;;5075266;28;20025;-85
2023/07/01 04:46:10;;;;;;;21.55;11.18;;;25.00;99.90;;;;;;5075441;28;20025;-85
2023/07/01 04:48:36;;;;;;;18.38;10.55;;;24.90;99.90;;;;;;5075281;28;20470;-85
2023/07/01 04:51:02;;;;;;;16.10;9.38;;;25.60;99.90;;;;;;5075573;28;20025;-84
2023/07/01 04:53:28;;;;;;;15.52;8.82;;;26.70;99.90;;;;;;5075164;28;20032;-77
2023/07/01 04:55:54;;;;;;;13.30;8.48;;;26.70;99.10;;;;;;5074123;28;20085;-84
2023/07/01 04:58:19;;;;;;;14.02;9.57;;;26.40;98.50;;;;;;5075126;28;20056;-81
2023/07/01 05:00:45;;;;;;;18.15;9.27;;;26.20;98.40;;;;;;5075006;28;20028;-85
2023/07/01 05:03:11;;;;;;;19.02;9.45;;;25.80;99.70;;;;;;5074932;28;20040;-84
2023/07/01 05:05:37;;;;;;;15.50;9.05;;;26.20;99.10;;;;;;5074950;28;20095;-73
2023/07/01 05:08:03;;;;;;;15.80;10.10;;;25.90;98.80;;;;;;5074767;28;20020;-82
2023/07/01 05:10:29;;;;;;;16.88;9.02;;;25.70;98.80;;;;;;5083284;28;20017;-77
2023/07/01 05:12:55;;;;;;;14.18;9.45;;;25.60;98.90;;;;;;5076408;28;20028;-80
2023/07/01 05:15:21;;;;;;;15.77;9.50;;;25.40;99.90;;;;;;5074776;28;20493;-82
2023/07/01 05:17:46;;;;;;;16.00;9.90;;;25.30;99.80;;;;;;5074879;28;20024;-82
2023/07/01 05:20:13;;;;;;;16.90;10.75;;;24.80;99.90;;;;;;5075290;28;20039;-74
2023/07/01 05:22:39;;;;;;;17.65;10.60;;;24.70;99.90;;;;;;5074734;28;20020;-78
2023/07/01 05:25:04;;;;;;;16.05;9.88;;;24.50;99.90;;;;;;5072626;28;20379;-84
2023/07/01 05:27:31;;;;;;;18.83;9.60;;;24.30;99.90;;;;;;5071594;28;20025;-73
2023/07/01 05:29:59;;;;;;;15.63;10.02;;;24.20;99.90;;;;;;5072033;28;20021;-77
2023/07/01 05:32:25;;;;;;;18.55;9.55;;;23.90;99.90;;;;;;5074661;28;20067;-74
2023/07/01 05:34:51;;;;;;;14.77;9.40;;;23.70;99.90;;;;;;5074783;28;20482;-81
2023/07/01 05:37:17;;;;;;;19.58;9.93;;;23.60;99.90;;;;;;5073898;28;20539;-74
2023/07/01 05:39:43;;;;;;;15.23;9.63;;;23.60;99.90;;;;;;5064430;28;20041;-78
2023/07/01 05:42:09;;;;;;;16.50;9.75;;;23.50;99.90;;;;;;5072627;28;20401;-82
2023/07/01 05:44:35;;;;;;;20.23;9.77;;;23.50;99.90;;;;;;5072362;28;20482;-81
2023/07/01 05:47:00;;;;;;;14.18;9.35;;;23.40;99.90;;;;;;5073143;28;20033;-77
2023/07/01 05:49:26;;;;;;;14.95;9.23;;;23.50;99.90;;;;;;5074173;28;20039;-82
2023/07/01 05:51:52;;;;;;;14.70;8.38;;;23.50;99.90;;;;;;5073853;28;20112;-82
2023/07/01 05:54:18;;;;;;;16.27;8.70;;;23.60;99.90;;;;;;5071759;28;20072;-81
2023/07/01 05:56:44;;;;;;;16.83;9.85;;;23.50;99.90;;;;;;5073695;28;20029;-74
2023/07/01 05:59:10;;;;;;;20.40;10.55;;;23.50;99.90;;;;;;5073997;28;20021;-73
2023/07/01 06:01:36;;;;;;;20.08;10.88;;;23.60;99.90;;;;;;5073815;28;20033;-81
2023/07/01 06:04:02;;;;;;;14.32;9.90;;;23.70;99.90;;;;;;5073855;28;20483;-75
2023/07/01 06:06:28;;;;;;;14.98;8.88;;;23.70;99.90;;;;;;5073969;28;20025;-79
2023/07/01 06:08:54;;;;;;;16.50;9.02;;;23.90;99.90;;;;;;5073797;28;20485;-74
2023/07/01 06:11:20;;;;;;;17.25;9.02;;;24.00;99.90;;;;;;5055215;28;20067;-74
2023/07/01 06:13:46;;;;;;;12.30;7.63;;;24.20;99.90;;;;;;5073508;28;20068;-80
2023/07/01 06:16:13;;;;;;;13.63;7.68;;;24.30;99.90;;;;;;5055877;28;20028;-80
2023/07/01 06:18:39;;;;;;;11.40;6.75;;;24.50;99.90;;;;;;5073425;28;20028;-80
2023/07/01 06:21:06;;;;;;;13.93;7.35;;;24.50;99.90;;;;;;5073530;28;20090;-73
2023/07/01 06:23:36;;;;;;;16.88;8.40;;;24.60;99.90;;;;;;5073084;28;20051;-74
2023/07/01 06:26:03;;;;;;;11.55;7.15;;;24.80;99.90;;;;;;5073455;28;20028;-73
2023/07/01 06:28:28;;;;;;;9.63;6.43;;;25.00;99.90;;;;;;5073497;28;20025;-81
2023/07/01 06:30:55;;;;;;;14.13;6.82;;;25.20;99.90;;;;;;5073191;28;20041;-76
2023/07/01 06:33:20;;;;;;;13.40;6.47;;;25.40;99.90;;;;;;5066330;28;20061;-81
2023/07/01 06:35:47;;;;;;;12.93;6.63;;;25.50;99.70;;;;;;5066956;28;20063;-81
2023/07/01 06:38:13;;;;;;;15.80;6.15;;;25.70;99.90;;;;;;5073437;28;20044;-80
2023/07/01 06:40:39;;;;;;;12.25;6.30;;;26.00;99.90;;;;;;5086955;28;20036;-78
2023/07/01 06:43:05;;;;;;;9.95;5.68;;;26.00;99.60;;;;;;5072930;28;20074;-78
2023/07/01 06:45:31;;;;;;;10.73;5.97;;;25.80;98.30;;;;;;5073299;28;20470;-81
2023/07/01 06:47:58;;;;;;;24.23;6.55;;;25.80;97.90;;;;;;5073274;28;20020;-79
2023/07/01 06:50:24;;;;;;;9.00;5.55;;;25.80;97.20;;;;;;5055012;28;20142;-75
2023/07/01 06:52:50;;;;;;;9.45;5.50;;;25.90;97.30;;;;;;5073173;28;20113;-75
2023/07/01 06:55:15;;;;;;;11.38;5.82;;;26.40;97.50;;;;;;5073141;28;20477;-81
2023/07/01 06:57:42;;;;;;;11.80;6.15;;;26.60;96.70;;;;;;5055104;28;20063;-80
2023/07/01 07:00:10;;;;;;;11.70;6.90;;;26.90;95.70;;;;;;5073292;28;20393;-79
2023/07/01 07:02:36;;;;;;;12.77;5.80;;;27.00;96.10;;;;;;5073221;28;20020;-75
2023/07/01 07:05:06;;;;;;;11.52;6.45;;;27.10;94.20;;;;;;5073249;28;20381;-74
2023/07/01 07:07:32;;;;;;;11.23;6.65;;;27.30;94.10;;;;;;5073231;28;20071;-74
2023/07/01 07:09:58;;;;;;;11.93;6.53;;;27.60;94.80;;;;;;5072898;28;20021;-80
2023/07/01 07:12:25;;;;;;;9.82;6.18;;;27.50;93.40;;;;;;5071876;28;20417;-76
2023/07/01 07:14:51;;;;;;;13.27;6.63;;;27.40;92.60;;;;;;5072781;28;20032;-82
2023/07/01 07:17:16;;;;;;;15.07;6.78;;;27.80;92.70;;;;;;5073084;28;20401;-80
2023/07/01 07:19:42;;;;;;;10.70;6.18;;;27.90;92.70;;;;;;5072913;28;20060;-77
2023/07/01 07:22:08;;;;;;;9.27;4.95;;;28.00;93.00;;;;;;5071939;28;20032;-82
2023/07/01 07:24:34;;;;;;;10.60;5.35;;;27.80;91.60;;;;;;5072874;28;20021;-76
2023/07/01 07:27:01;;;;;;;10.85;6.05;;;27.60;92.40;;;;;;5073128;28;20033;-83
2023/07/01 07:29:31;;;;;;;15.15;6.40;;;27.80;92.00;;;;;;5073007;28;20024;-77
2023/07/01 07:31:57;;;;;;;9.77;5.20;;;27.70;91.10;;;;;;5072550;28;20048;-82
2023/07/01 07:34:24;;;;;;;10.32;5.80;;;27.50;90.70;;;;;;5072796;28;20057;-81
2023/07/01 07:36:50;;;;;;;14.38;6.70;;;27.50;91.90;;;;;;5073091;28;20493;-81
2023/07/01 07:39:16;;;;;;;8.15;5.22;;;27.90;91.40;;;;;;5071315;28;20024;-85
2023/07/01 07:41:44;;;;;;;11.40;7.22;;;28.40;91.40;;;;;;5078888;28;20024;-84
2023/07/01 07:44:10;;;;;;;10.10;6.10;;;28.40;91.10;;;;;;5072940;28;20028;-82
2023/07/01 07:46:38;;;;;;;8.57;5.90;;;27.90;92.00;;;;;;5054519;28;20485;-79
2023/07/01 07:49:04;;;;;;;10.57;6.00;;;27.90;91.90;;;;;;5074425;28;20027;-77
2023/07/01 07:51:31;;;;;;;11.40;5.90;;;28.20;91.90;;;;;;5059086;28;20024;-77
2023/07/01 07:53:57;;;;;;;12.32;6.10;;;28.40;91.20;;;;;;5076886;28;20070;-85
2023/07/01 07:56:23;;;;;;;8.00;5.80;;;28.60;92.10;;;;;;5068780;28;20029;-81
2023/07/01 07:58:49;;;;;;;11.18;6.43;;;28.60;90.50;;;;;;5076269;28;20039;-84
2023/07/01 08:01:15;;;;;;;12.68;5.70;;;28.50;91.90;;;;;;5059072;28;20084;-84
2023/07/01 08:03:40;;;;;;;8.38;5.65;;;28.30;91.40;;;;;;5076700;28;20032;-86
2023/07/01 08:06:06;;;;;;;9.40;5.10;;;28.20;92.30;;;;;;5074587;28;20025;-77
2023/07/01 08:08:33;;;;;;;6.28;4.70;;;28.20;92.10;;;;;;5056174;28;20041;-76
2023/07/01 08:10:59;;;;;;;7.72;4.60;;;28.30;91.50;;;;;;5055387;28;20112;-78
2023/07/01 08:13:25;;;;;;;7.85;4.85;;;28.30;92.20;;;;;;5053454;28;20029;-77
2023/07/01 08:15:52;;;;;;;11.88;6.57;;;28.10;92.20;;;;;;5055831;28;20497;-84
2023/07/01 08:18:18;;;;;;;11.55;6.20;;;28.30;91.60;;;;;;5055255;28;20099;-77
2023/07/01 08:20:44;;;;;;;13.18;5.65;;;28.50;92.10;;;;;;5056319;28;20136;-77
2023/07/01 08:23:11;;;;;;;8.10;5.82;;;28.50;92.50;;;;;;5047732;28;20074;-83
2023/07/01 08:25:41;;;;;;;13.77;6.65;;;28.50;90.80;;;;;;5055760;28;20548;-77
2023/07/01 08:28:10;;;;;;;7.43;5.25;;;28.50;91.70;;;;;;5056081;28;20027;-76
2023/07/01 08:30:36;;;;;;;9.50;5.10;;;28.50;91.80;;;;;;5066938;28;20043;-83
2023/07/01 08:33:02;;;;;;;8.25;4.97;;;28.60;91.80;;;;;;5060572;28;20124;-86
2023/07/01 08:35:29;;;;;;;8.65;4.93;;;28.70;91.40;;;;;;5056246;28;20028;-78
2023/07/01 08:37:58;;;;;;;9.00;5.40;;;29.20;90.30;;;;;;5063923;28;20021;-81
2023/07/01 08:40:26;;;;;;;11.68;5.63;;;29.30;91.40;;;;;;5054954;28;20532;-80
2023/07/01 08:43:05;;;;;;;8.55;5.05;;;29.70;97.10;;;;;;5071208;28;20028;-77
2023/07/01 08:45:32;;;;;;;9.90;4.97;;;29.50;92.40;;;;;;5075436;28;20108;-84
2023/07/01 08:48:02;;;;;;;6.60;4.47;;;29.80;90.90;;;;;;5074033;28;20036;-83
2023/07/01 08:50:52;;;;;;;9.23;5.10;;;29.80;91.30;;;;;;5074914;28;20024;-79
2023/07/01 08:53:19;;;;;;;7.97;4.53;;;29.70;92.00;;;;;;5077188;28;20397;-84
2023/07/01 08:55:46;;;;;;;6.82;4.32;;;29.90;90.20;;;;;;5076392;28;20047;-84
2023/07/01 08:58:13;;;;;;;6.35;4.05;;;29.90;88.50;;;;;;5076279;28;20115;-79
2023/07/01 09:00:40;;;;;;;8.73;4.45;;;29.70;89.40;;;;;;5074891;28;20038;-83
2023/07/01 09:03:06;;;;;;;7.18;3.65;;;29.50;89.90;;;;;;5075247;28;20032;-81
2023/07/01 09:05:32;;;;;;;5.57;4.05;;;29.90;91.20;;;;;;5074934;28;20016;-81
2023/07/01 09:07:58;;;;;;;6.57;4.05;;;29.90;90.00;;;;;;5076445;28;20427;-83
2023/07/01 09:10:24;;;;;;;6.97;5.00;;;30.00;87.50;;;;;;5074968;28;20016;-82
2023/07/01 09:12:50;;;;;;;5.70;4.25;;;29.80;90.20;;;;;;5074976;28;20041;-78
2023/07/01 09:15:16;;;;;;;4.88;3.83;;;;;;;;;;5072887;28;20025;-82
2023/07/01 09:17:42;;;;;;;6.57;4.13;;;29.90;90.50;;;;;;5075031;28;20159;-83
2023/07/01 09:20:13;;;;;;;5.20;3.65;;;30.10;87.40;;;;;;5075438;28;20016;-85
2023/07/01 09:22:46;;;;;;;6.70;4.18;;;30.00;87.80;;;;;;5074874;28;20064;-83
2023/07/01 09:25:27;;;;;;;5.45;3.78;;;30.00;86.80;;;;;;5075930;28;20028;-82
2023/07/01 09:27:53;;;;;;;5.90;3.25;;;30.00;86.70;;;;;;5074547;28;20033;-82
2023/07/01 09:30:25;;;;;;;8.32;3.75;;;29.90;86.80;;;;;;5075223;28;20422;-86
2023/07/01 09:33:07;;;;;;;5.32;3.20;;;30.10;88.90;;;;;;5074927;28;20076;-84
2023/07/01 09:35:42;;;;;;;;;;;30.20;85.40;;;;;;5075412;28;20027;-83
2023/07/01 09:38:09;;;;;;;11.30;4.32;;;30.20;85.60;;;;;;5056747;28;19912;-77
2023/07/01 09:40:34;;;;;;;5.50;3.70;;;29.80;83.40;;;;;;5074945;28;20032;-84
2023/07/01 09:43:00;;;;;;;6.18;4.00;;;29.60;85.70;;;;;;5074519;28;20016;-79
2023/07/01 09:45:26;;;;;;;8.07;4.22;;;29.50;86.80;;;;;;5075436;28;20024;-78
2023/07/01 09:47:52;;;;;;;4.55;3.72;;;29.60;85.30;;;;;;5073673;28;20435;-77
2023/07/01 09:50:26;;;;;;;8.15;4.22;;;29.60;85.00;;;;;;5074695;28;20031;-84
2023/07/01 09:52:53;;;;;;;5.70;4.38;;;29.60;86.30;;;;;;5073081;28;20478;-77
2023/07/01 09:55:20;;;;;;;6.70;4.47;;;30.00;85.20;;;;;;5074429;28;20091;-84
2023/07/01 09:57:46;;;;;;;7.05;4.30;;;29.90;88.00;;;;;;5074686;28;20039;-77
2023/07/01 10:00:16;;;;;;;6.35;4.07;;;30.00;85.30;;;;;;5073934;28;20033;-81
2023/07/01 10:02:47;;;;;;;6.78;4.55;;;30.00;86.30;;;;;;5065909;28;20032;-83
2023/07/01 10:05:14;;;;;;;9.30;4.43;;;30.00;86.10;;;;;;5073912;28;20501;-84
2023/07/01 10:07:41;;;;;;;8.05;4.20;;;30.00;84.70;;;;;;5076888;28;20020;-83
2023/07/01 10:10:17;;;;;;;8.25;4.38;;;29.90;85.80;;;;;;5075097;28;20021;-83
2023/07/01 10:12:45;;;;;;;6.78;4.90;;;29.80;86.70;;;;;;5073215;28;20124;-82
2023/07/01 10:15:13;;;;;;;9.75;4.80;;;30.00;87.20;;;;;;5069082;28;20013;-85
2023/07/01 10:17:49;;;;;;;7.05;4.20;;;30.20;86.70;;;;;;5068356;28;20032;-85
2023/07/01 10:20:29;;;;;;;7.18;4.47;;;30.50;87.50;;;;;;5062221;28;20355;-79
2023/07/01 10:22:59;;;;;;;8.07;4.32;;;30.50;88.10;;;;;;5073779;28;20035;-79
2023/07/01 10:25:41;;;;;;;7.93;4.43;;;30.60;87.50;;;;;;5074215;28;20021;-81
2023/07/01 10:28:15;;;;;;;7.10;4.55;;;30.90;87.40;;;;;;5074745;28;20060;-86
2023/07/01 10:30:44;;;;;;;5.53;4.38;;;31.00;88.60;;;;;;5088700;28;20461;-85
2023/07/01 10:33:35;;;;;;;10.35;4.70;;;31.30;83.50;;;;;;5076264;28;20049;-83
2023/07/01 10:36:09;;;;;;;6.88;4.50;;;31.30;85.50;;;;;;5074246;28;20025;-84
2023/07/01 10:38:35;;;;;;;6.15;4.18;;;;;;;;;;5074082;28;20040;-78
2023/07/01 10:41:01;;;;;;;9.52;4.20;;;;;;;;;;5088072;28;20017;-82
2023/07/01 10:43:33;;;;;;;10.85;4.57;;;;;;;;;;5057317;28;20125;-80
2023/07/01 10:45:59;;;;;;;;;;;;;;;;;;5075948;28;20024;-84
2023/07/01 10:48:25;;;;;;;9.32;4.75;;;;;;;;;;5081404;28;20002;-83
2023/07/01 10:51:09;;;;;;;7.03;4.38;;;31.70;99.90;;;;;;5074887;28;20033;-77
2023/07/01 10:53:53;;;;;;;8.95;4.28;;;;;;;;;;5076609;28;20082;-83
2023/07/01 10:56:19;;;;;;;6.07;4.22;;;31.70;84.90;;;;;;5073998;28;20027;-82
2023/07/01 10:58:45;;;;;;;6.65;4.13;;;31.40;86.40;;;;;;5070375;28;20028;-81
2023/07/01 11:01:40;;;;;;;7.28;4.63;;;31.20;87.00;;;;;;5056885;28;20078;-82
2023/07/01 11:04:06;;;;;;;7.93;4.47;;;31.30;84.60;;;;;;5074521;28;20389;-81
2023/07/01 11:06:53;;;;;;;8.15;4.85;;;31.30;86.20;;;;;;5074846;28;20100;-75
2023/07/01 11:09:34;;;;;;;9.60;3.88;;;31.20;87.10;;;;;;5073778;28;20547;-81
2023/07/01 11:12:02;;;;;;;7.72;4.00;;;31.40;86.60;;;;;;5073208;28;20504;-75
2023/07/01 11:14:35;;;;;;;14.85;4.22;;;31.30;86.40;;;;;;5074007;28;20013;-82
2023/07/01 11:17:19;;;;;;;6.05;3.72;;;30.90;84.90;;;;;;5073807;28;20073;-76
2023/07/01 11:19:45;;;;;;;8.63;3.92;;;30.80;85.00;;;;;;5072828;28;20025;-82
2023/07/01 11:22:13;;;;;;;7.97;4.15;;;31.10;86.50;;;;;;5073290;28;20028;-78
2023/07/01 11:24:39;;;;;;;14.57;4.38;;;30.90;83.70;;;;;;5077870;28;20450;-76
2023/07/01 11:27:09;;;;;;;8.50;3.78;;;30.90;85.70;;;;;;5077695;28;20053;-79
2023/07/01 11:29:36;;;;;;;7.68;3.92;;;30.90;85.70;;;;;;5077308;28;20034;-82
2023/07/01 11:32:06;;;;;;;9.27;3.78;;;30.80;86.50;;;;;;5076595;28;20099;-82
2023/07/01 11:34:32;;;;;;;10.80;3.90;;;31.10;82.90;;;;;;5058352;28;20032;-78
2023/07/01 11:37:00;;;;;;;6.90;4.18;;;31.20;81.20;;;;;;5077052;28;20439;-79
2023/07/01 11:39:26;;;;;;;6.75;4.45;;;30.80;84.20;;;;;;5085323;28;20501;-79
2023/07/01 11:41:55;;;;;;;7.22;3.65;;;30.80;84.80;;;;;;5066435;28;20021;-82
2023/07/01 11:44:25;;;;;;;8.27;4.32;;;30.80;83.90;;;;;;5076934;28;20044;-83
2023/07/01 11:46:52;;;;;;;7.47;3.67;;;31.00;86.30;;;;;;5078797;28;20024;-75
2023/07/01 11:49:21;;;;;;;8.80;3.50;;;30.90;84.70;;;;;;5078655;28;20017;-81
2023/07/01 11:51:54;;;;;;;6.70;4.00;;;31.00;85.60;;;;;;5070238;28;20040;-82
2023/07/01 11:54:22;;;;;;;6.60;4.13;;;31.00;85.70;;;;;;5077764;28;20035;-80
2023/07/01 11:56:50;;;;;;;6.70;3.95;;;31.20;84.20;;;;;;5078154;28;20022;-81
2023/07/01 11:59:39;;;;;;;6.00;3.30;;;31.30;84.10;;;;;;5078488;28;20036;-77
2023/07/01 12:02:31;;;;;;;8.63;4.25;;;31.30;86.80;;;;;;5070060;28;20044;-81
2023/07/01 12:04:58;;;;;;;;;;;31.30;83.20;;;;;;5069182;28;20115;-75
2023/07/01 12:07:24;;;;;;;5.68;3.97;;;31.20;85.40;;;;;;5081354;28;19904;-78
2023/07/01 12:09:50;;;;;;;6.80;3.70;;;;;;;;;;5075040;28;20029;-78
2023/07/01 12:12:17;;;;;;;5.53;3.72;;;;;;;;;;5075765;28;20013;-77
2023/07/01 12:14:47;;;;;;;8.10;4.15;;;30.50;94.70;;;;;;5078747;28;20062;-80
2023/07/01 12:17:29;;;;;;;8.63;3.97;;;30.10;84.20;;;;;;5083361;28;20111;-74
2023/07/01 12:19:54;;;;;;;;;;;30.10;85.90;;;;;;5076472;28;20518;-82
2023/07/01 12:22:20;;;;;;;6.25;3.90;;;29.90;99.90;;;;;;5076800;28;20042;-83
2023/07/01 12:24:53;;;;;;;7.13;4.00;;;;;;;;;;5076122;28;20135;-81
2023/07/01 12:27:20;;;;;;;9.07;3.97;;;;;;;;;;5076232;28;20073;-82
2023/07/01 12:29:47;;;;;;;8.02;4.30;;;;;;;;;;5075947;28;20024;-81
2023/07/01 12:32:14;;;;;;;8.07;3.63;;;;;;;;;;5074985;28;20040;-75
2023/07/01 12:34:42;;;;;;;5.43;3.75;;;;;;;;;;5075190;28;20500;-83
2023/07/01 12:37:09;;;;;;;6.22;3.78;;;;;;;;;;5075491;28;20028;-80
2023/07/01 12:39:37;;;;;;;6.25;4.07;;;;;;;;;;5075672;28;20013;-80
2023/07/01 12:42:05;;;;;;;7.40;4.18;;;;;;;;;;5057240;28;20029;-81
2023/07/01 12:44:33;;;;;;;5.72;3.55;;;;;;;;;;5075138;28;20040;-81
2023/07/01 12:46:59;;;;;;;7.93;4.43;;;;;;;;;;5074987;28;20036;-80